createdAt,value
2018-07-15T00:01:32.086Z,65.05
2018-07-15T00:04:02.652Z,64.82
2018-07-15T00:06:33.253Z,64.74
2018-07-15T00:09:03.867Z,65.34
2018-07-15T00:11:34.298Z,65.17
2018-07-15T00:14:05.706Z,65.74
2018-07-15T00:16:36.132Z,66.38
2018-07-15T00:19:06.289Z,66.83
2018-07-15T00:21:36.829Z,66.26
2018-07-15T00:24:07.702Z,66.64
2018-07-15T00:26:38.242Z,67.15
2018-07-15T00:29:09.808Z,67.42
2018-07-15T00:31:40.997Z,67.58
2018-07-15T00:34:12.006Z,68.05
2018-07-15T00:36:41.978Z,68.81
2018-07-15T00:39:13.320Z,68.74
2018-07-15T00:41:43.827Z,68.58
2018-07-15T00:44:14.241Z,68.73
2018-07-15T00:46:44.776Z,69.11
2018-07-15T00:49:15.563Z,68.47
2018-07-15T00:51:47.161Z,68.29
2018-07-15T00:54:17.923Z,68.25
2018-07-15T00:56:48.724Z,68.73
2018-07-15T00:59:19.327Z,68.47
2018-07-15T01:01:49.710Z,68.17
2018-07-15T01:04:20.443Z,68.65
2018-07-15T01:06:50.592Z,68.41
2018-07-15T01:09:21.578Z,67.89
2018-07-15T01:11:53.469Z,67.95
2018-07-15T01:14:23.928Z,68.21
2018-07-15T01:16:54.530Z,68.14
2018-07-15T01:19:25.311Z,68.93
2018-07-15T01:21:55.846Z,68.59
2018-07-15T01:24:26.369Z,68.61
2018-07-15T01:26:56.253Z,69.52
2018-07-15T01:29:27.016Z,70.63
2018-07-15T01:31:58.403Z,70.45
2018-07-15T01:34:28.735Z,70.81
2018-07-15T01:36:59.321Z,71.47
2018-07-15T01:39:29.823Z,71.59
2018-07-15T01:42:00.363Z,70.41
2018-07-15T01:44:31.094Z,70.01
2018-07-15T01:47:01.564Z,69.39
2018-07-15T01:49:32.609Z,68.84
2018-07-15T01:52:03.633Z,69.99
2018-07-15T01:54:34.196Z,69.95
2018-07-15T01:57:04.665Z,69.81
2018-07-15T01:59:35.186Z,69.98
2018-07-15T02:02:05.788Z,70.27
2018-07-15T02:04:36.158Z,70.30
2018-07-15T02:07:06.933Z,71.46
2018-07-15T02:09:37.993Z,72.78
2018-07-15T02:12:09.090Z,73.48
2018-07-15T02:14:39.637Z,73.84
2018-07-15T02:17:10.183Z,74.51
2018-07-15T02:19:40.693Z,74.79
2018-07-15T02:22:11.171Z,74.64
2018-07-15T02:24:41.770Z,73.72
2018-07-15T02:27:12.777Z,73.52
2018-07-15T02:29:43.969Z,73.34
2018-07-15T02:32:14.550Z,72.41
2018-07-15T02:34:45.126Z,71.87
2018-07-15T02:37:15.842Z,71.44
2018-07-15T02:39:46.304Z,70.46
2018-07-15T02:42:16.672Z,69.75
2018-07-15T02:44:46.617Z,69.23
2018-07-15T02:47:17.081Z,69.87
2018-07-15T02:49:48.378Z,70.06
2018-07-15T02:52:18.990Z,70.02
2018-07-15T02:54:49.532Z,70.81
2018-07-15T02:57:19.980Z,70.94
2018-07-15T02:59:50.502Z,72.00
2018-07-15T03:02:20.852Z,72.61
2018-07-15T03:04:50.885Z,72.23
2018-07-15T03:07:21.413Z,72.68
2018-07-15T03:09:53.652Z,72.61
2018-07-15T03:12:24.152Z,72.49
2018-07-15T03:14:54.631Z,72.30
2018-07-15T03:17:25.108Z,72.99
2018-07-15T03:19:55.590Z,73.34
2018-07-15T03:22:26.079Z,73.37
2018-07-15T03:24:56.525Z,73.72
2018-07-15T03:27:26.970Z,73.91
2018-07-15T03:29:58.274Z,73.79
2018-07-15T03:32:28.784Z,74.11
2018-07-15T03:34:59.387Z,74.41
2018-07-15T03:37:30.106Z,74.76
2018-07-15T03:40:00.721Z,73.65
2018-07-15T03:42:31.127Z,74.57
2018-07-15T03:45:01.793Z,73.82
2018-07-15T03:47:32.675Z,73.56
2018-07-15T03:50:03.942Z,71.49
2018-07-15T03:52:34.512Z,71.14
2018-07-15T03:55:05.422Z,71.17
2018-07-15T03:57:36.174Z,71.78
2018-07-15T04:00:06.842Z,72.13
2018-07-15T04:02:37.350Z,72.42
2018-07-15T04:05:07.946Z,73.76
2018-07-15T04:07:39.258Z,74.90
2018-07-15T04:10:10.198Z,74.97
2018-07-15T04:12:40.735Z,75.23
2018-07-15T04:15:10.947Z,74.80
2018-07-15T04:17:41.323Z,75.05
2018-07-15T04:20:11.402Z,74.83
2018-07-15T04:22:41.956Z,74.39
2018-07-15T04:25:12.506Z,74.19
2018-07-15T04:27:44.246Z,73.36
2018-07-15T04:30:15.934Z,72.71
2018-07-15T04:32:46.546Z,72.27
2018-07-15T04:35:17.168Z,71.84
2018-07-15T04:37:47.800Z,70.82
2018-07-15T04:40:18.843Z,70.23
2018-07-15T04:42:49.753Z,69.30
2018-07-15T04:45:21.400Z,69.58
2018-07-15T04:47:53.084Z,69.22
2018-07-15T04:50:23.608Z,68.16
2018-07-15T04:52:54.110Z,66.90
2018-07-15T04:55:24.811Z,68.93
2018-07-15T04:57:55.188Z,69.71
2018-07-15T05:00:25.718Z,69.80
2018-07-15T05:02:56.451Z,70.62
2018-07-15T05:05:28.503Z,70.29
2018-07-15T05:07:58.664Z,69.09
2018-07-15T05:10:29.423Z,68.55
2018-07-15T05:12:59.843Z,68.45
2018-07-15T05:15:29.955Z,67.88
2018-07-15T05:18:00.603Z,68.96
2018-07-15T05:20:32.289Z,70.00
2018-07-15T05:23:05.567Z,70.02
2018-07-15T05:25:36.371Z,70.88
2018-07-15T05:28:07.163Z,70.01
2018-07-15T05:30:37.657Z,69.68
2018-07-15T05:33:12.248Z,69.25
2018-07-15T05:38:18.602Z,67.58
2018-07-15T05:40:51.567Z,67.14
2018-07-15T05:43:22.532Z,67.02
2018-07-15T05:45:57.469Z,66.37
2018-07-15T05:48:28.154Z,66.08
2018-07-15T05:50:58.747Z,66.14
2018-07-15T05:53:30.189Z,64.77
2018-07-15T05:56:00.984Z,63.61
2018-07-15T05:58:31.596Z,63.24
2018-07-15T06:01:07.611Z,62.86
2018-07-15T06:03:38.675Z,62.05
2018-07-15T06:06:09.191Z,61.49
2018-07-15T06:08:39.469Z,60.40
2018-07-15T06:11:15.094Z,60.05
2018-07-15T06:13:45.780Z,59.20
2018-07-15T06:16:17.025Z,57.05
2018-07-15T06:18:51.902Z,53.38
2018-07-15T06:21:28.281Z,51.01
2018-07-15T06:23:59.457Z,48.54
2018-07-15T06:26:30.188Z,48.21
2018-07-15T06:29:00.808Z,47.23
2018-07-15T06:31:31.465Z,45.91
2018-07-15T06:34:02.345Z,44.47
2018-07-15T06:36:33.399Z,42.32
2018-07-15T06:39:06.212Z,42.26
2018-07-15T06:41:37.437Z,41.71
2018-07-15T06:44:08.644Z,41.41
2018-07-15T06:46:39.770Z,40.94
2018-07-15T06:49:09.896Z,40.46
2018-07-15T06:51:40.611Z,40.87
2018-07-15T06:54:11.391Z,41.53
2018-07-15T06:56:42.437Z,40.82
2018-07-15T06:59:13.879Z,38.80
2018-07-15T07:01:49.502Z,39.40
2018-07-15T07:04:25.534Z,38.08
2018-07-15T07:06:56.488Z,36.75
2018-07-15T07:09:27.991Z,36.15
2018-07-15T07:12:00.544Z,35.11
2018-07-15T07:17:08.186Z,34.40
2018-07-15T07:19:39.474Z,32.96
2018-07-15T07:22:10.090Z,33.17
2018-07-15T07:24:40.736Z,34.04
2018-07-15T07:27:11.220Z,34.18
2018-07-15T07:29:42.961Z,33.84
2018-07-15T07:32:14.245Z,33.33
2018-07-15T07:34:45.169Z,32.89
2018-07-15T07:37:16.302Z,32.23
2018-07-15T07:39:49.017Z,31.76
2018-07-15T07:42:21.093Z,31.25
2018-07-15T07:44:57.438Z,29.57
2018-07-15T07:47:28.031Z,29.03
2018-07-15T07:49:58.721Z,28.38
2018-07-15T07:52:29.593Z,28.84
2018-07-15T07:55:00.551Z,28.70
2018-07-15T07:57:31.497Z,27.58
2018-07-15T08:00:02.293Z,27.45
2018-07-15T08:02:33.958Z,27.37
2018-07-15T08:05:05.440Z,26.21
2018-07-15T08:10:11.123Z,27.44
2018-07-15T08:12:44.716Z,26.47
2018-07-15T08:15:16.427Z,26.70
2018-07-15T08:17:48.716Z,26.36
2018-07-15T08:20:21.359Z,25.02
2018-07-15T08:22:57.172Z,25.39
2018-07-15T08:28:05.023Z,24.03
2018-07-15T08:30:52.440Z,23.75
2018-07-15T08:33:24.105Z,22.67
2018-07-15T08:35:54.806Z,22.32
2018-07-15T08:38:30.115Z,21.78
2018-07-15T08:41:09.726Z,20.58
2018-07-15T08:43:40.449Z,21.16
2018-07-15T08:46:10.704Z,20.35
2018-07-15T08:48:41.529Z,18.54
2018-07-15T08:51:12.285Z,18.37
2018-07-15T08:56:20.639Z,18.11
2018-07-15T08:58:51.640Z,18.53
2018-07-15T09:01:22.561Z,18.63
2018-07-15T09:03:53.139Z,17.90
2018-07-15T09:06:23.929Z,17.58
2018-07-15T09:09:01.614Z,16.40
2018-07-15T09:11:32.576Z,15.33
2018-07-15T09:14:03.569Z,17.26
2018-07-15T09:16:38.811Z,16.95
2018-07-15T09:19:09.968Z,16.43
2018-07-15T09:21:42.953Z,15.10
2018-07-15T09:24:15.276Z,16.30
2018-07-15T09:26:46.710Z,16.41
2018-07-15T09:29:17.887Z,16.23
2018-07-15T09:31:49.639Z,16.01
2018-07-15T09:34:24.628Z,15.90
2018-07-15T09:36:55.974Z,16.30
2018-07-15T09:39:29.985Z,17.29
2018-07-15T09:42:01.883Z,17.49
2018-07-15T09:44:32.911Z,17.15
2018-07-15T09:47:04.108Z,17.25
2018-07-15T09:49:36.775Z,17.19
2018-07-15T09:52:07.442Z,17.50
2018-07-15T09:54:38.427Z,17.26
2018-07-15T09:57:10.492Z,17.27
2018-07-15T09:59:42.149Z,17.22
2018-07-15T10:02:13.829Z,17.06
2018-07-15T10:04:44.750Z,17.02
2018-07-15T10:07:15.895Z,16.44
2018-07-15T10:09:47.518Z,16.74
2018-07-15T10:12:19.444Z,16.79
2018-07-15T10:14:51.017Z,17.55
2018-07-15T10:17:22.908Z,21.51
2018-07-15T10:19:59.260Z,22.18
2018-07-15T10:22:31.185Z,19.90
2018-07-15T10:25:02.388Z,18.76
2018-07-15T10:27:35.471Z,17.80
2018-07-15T10:30:09.686Z,17.73
2018-07-15T10:32:42.316Z,17.70
2018-07-15T10:35:13.756Z,17.22
2018-07-15T10:37:45.590Z,16.60
2018-07-15T10:40:19.325Z,16.72
2018-07-15T10:42:57.734Z,16.48
2018-07-15T10:45:29.228Z,16.67
2018-07-15T10:48:01.408Z,16.79
2018-07-15T10:50:34.270Z,16.55
2018-07-15T10:53:06.071Z,15.68
2018-07-15T10:55:37.727Z,15.47
2018-07-15T10:58:09.019Z,16.43
2018-07-15T11:00:39.679Z,16.61
2018-07-15T11:03:12.093Z,16.64
2018-07-15T11:05:43.211Z,17.27
2018-07-15T11:08:14.563Z,17.24
2018-07-15T11:10:45.952Z,16.96
2018-07-15T11:13:17.973Z,16.27
2018-07-15T11:15:49.711Z,15.26
2018-07-15T11:18:21.491Z,15.07
2018-07-15T11:20:52.331Z,15.46
2018-07-15T11:23:23.133Z,14.71
2018-07-15T11:25:54.085Z,14.32
2018-07-15T11:28:24.148Z,14.00
2018-07-15T11:30:55.627Z,14.15
2018-07-15T11:33:27.829Z,14.61
2018-07-15T11:35:59.624Z,13.93
2018-07-15T11:38:30.524Z,13.73
2018-07-15T11:41:01.319Z,13.52
2018-07-15T11:43:32.641Z,13.72
2018-07-15T11:46:03.416Z,14.11
2018-07-15T11:48:34.552Z,14.81
2018-07-15T11:51:06.150Z,16.15
2018-07-15T11:53:37.197Z,14.87
2018-07-15T11:56:09.060Z,14.94
2018-07-15T11:58:43.296Z,15.25
2018-07-15T12:01:17.110Z,15.33
2018-07-15T12:03:49.340Z,15.36
2018-07-15T12:06:20.966Z,14.70
2018-07-15T12:09:01.308Z,14.59
2018-07-15T12:14:15.409Z,15.73
2018-07-15T12:16:47.261Z,16.16
2018-07-15T12:19:19.049Z,15.22
2018-07-15T12:21:49.982Z,14.47
2018-07-15T12:24:24.178Z,13.80
2018-07-15T12:26:56.562Z,13.33
2018-07-15T12:29:30.185Z,13.04
2018-07-15T12:32:00.495Z,13.43
2018-07-15T12:34:31.187Z,14.15
2018-07-15T12:37:04.575Z,13.66
2018-07-15T12:39:35.797Z,14.88
2018-07-15T12:42:07.044Z,15.03
2018-07-15T12:44:37.977Z,13.89
2018-07-15T12:47:10.379Z,13.43
2018-07-15T12:49:41.884Z,12.76
2018-07-15T12:52:13.958Z,12.96
2018-07-15T12:54:45.032Z,12.79
2018-07-15T12:57:16.711Z,13.06
2018-07-15T12:59:47.862Z,12.03
2018-07-15T13:02:18.563Z,11.85
2018-07-15T13:04:50.288Z,12.50
2018-07-15T13:07:22.329Z,15.13
2018-07-15T13:09:52.568Z,15.64
2018-07-15T13:12:23.330Z,15.57
2018-07-15T13:14:54.019Z,15.03
2018-07-15T13:17:25.792Z,14.56
2018-07-15T13:19:56.533Z,15.92
2018-07-15T13:22:27.577Z,14.68
2018-07-15T13:24:58.991Z,14.40
2018-07-15T13:27:29.692Z,14.46
2018-07-15T13:30:00.268Z,13.64
2018-07-15T13:32:31.249Z,13.59
2018-07-15T13:35:03.144Z,14.19
2018-07-15T13:37:35.399Z,14.09
2018-07-15T13:40:06.364Z,14.91
2018-07-15T13:42:39.590Z,14.46
2018-07-15T13:45:10.425Z,16.90
2018-07-15T13:47:41.290Z,15.87
2018-07-15T13:50:12.153Z,15.04
2018-07-15T13:52:43.340Z,16.49
2018-07-15T13:55:14.199Z,14.62
2018-07-15T13:57:46.243Z,14.54
2018-07-15T14:00:18.258Z,14.51
2018-07-15T14:02:49.377Z,15.79
2018-07-15T14:05:20.156Z,19.17
2018-07-15T14:07:51.900Z,16.61
2018-07-15T14:10:24.151Z,18.23
2018-07-15T14:12:55.519Z,18.01
2018-07-15T14:15:27.374Z,18.18
2018-07-15T14:18:00.128Z,16.73
2018-07-15T14:20:30.686Z,16.83
2018-07-15T14:23:01.313Z,17.37
2018-07-15T14:25:32.714Z,16.89
2018-07-15T14:28:03.259Z,17.03
2018-07-15T14:30:33.844Z,17.64
2018-07-15T14:33:04.457Z,16.69
2018-07-15T14:35:35.996Z,16.69
2018-07-15T14:38:07.671Z,16.03
2018-07-15T14:40:38.604Z,15.95
2018-07-15T14:43:09.479Z,15.23
2018-07-15T14:45:47.760Z,15.67
2018-07-15T14:48:18.360Z,15.50
2018-07-15T14:50:50.140Z,15.85
2018-07-15T14:53:21.974Z,16.69
2018-07-15T14:55:52.459Z,16.61
2018-07-15T14:58:23.340Z,17.73
2018-07-15T15:00:54.888Z,17.40
2018-07-15T15:03:26.377Z,17.01
2018-07-15T15:05:57.858Z,17.85
2018-07-15T15:08:30.684Z,18.08
2018-07-15T15:11:02.258Z,17.49
2018-07-15T15:13:33.708Z,17.64
2018-07-15T15:16:06.955Z,17.87
2018-07-15T15:21:15.732Z,18.28
2018-07-15T15:23:48.293Z,18.28
2018-07-15T15:26:22.782Z,18.75
2018-07-15T15:28:54.375Z,19.16
2018-07-15T15:31:26.388Z,19.18
2018-07-15T15:33:58.299Z,19.56
2018-07-15T15:36:30.304Z,21.50
2018-07-15T15:39:02.510Z,21.64
2018-07-15T15:41:34.341Z,22.71
2018-07-15T15:44:06.004Z,23.27
2018-07-15T15:46:37.770Z,23.44
2018-07-15T15:49:09.713Z,22.86
2018-07-15T15:51:41.192Z,24.41
2018-07-15T15:54:13.495Z,23.05
2018-07-15T15:56:44.875Z,23.41
2018-07-15T15:59:16.144Z,22.78
2018-07-15T16:01:48.977Z,22.32
2018-07-15T16:04:25.301Z,23.61
2018-07-15T16:07:01.398Z,24.79
2018-07-15T16:09:36.830Z,23.98
2018-07-15T16:12:11.737Z,25.43
2018-07-15T16:14:43.372Z,25.75
2018-07-15T16:17:15.720Z,26.14
2018-07-15T16:19:47.927Z,27.02
2018-07-15T16:22:19.734Z,27.00
2018-07-15T16:24:51.455Z,26.81
2018-07-15T16:27:23.378Z,28.34
2018-07-15T16:29:56.179Z,27.58
2018-07-15T16:32:28.506Z,27.63
2018-07-15T16:35:00.036Z,28.22
2018-07-15T16:37:31.829Z,28.06
2018-07-15T16:40:03.473Z,28.53
2018-07-15T16:42:35.134Z,28.23
2018-07-15T16:45:07.092Z,28.57
2018-07-15T16:47:39.134Z,28.34
2018-07-15T16:50:11.045Z,30.03
2018-07-15T16:52:41.770Z,27.85
2018-07-15T16:55:14.302Z,27.20
2018-07-15T16:57:45.128Z,27.76
2018-07-15T17:00:16.107Z,28.44
2018-07-15T17:02:46.446Z,28.67
2018-07-15T17:05:16.919Z,28.86
2018-07-15T17:07:48.355Z,29.21
2018-07-15T17:10:19.440Z,28.34
2018-07-15T17:12:50.179Z,29.17
2018-07-15T17:15:20.818Z,29.71
2018-07-15T17:17:51.592Z,29.57
2018-07-15T17:20:21.713Z,30.18
2018-07-15T17:22:52.746Z,29.76
2018-07-15T17:25:23.750Z,29.71
2018-07-15T17:27:55.673Z,30.05
2018-07-15T17:30:27.487Z,31.10
2018-07-15T17:32:58.515Z,30.19
2018-07-15T17:35:29.736Z,31.52
2018-07-15T17:38:00.484Z,31.89
2018-07-15T17:40:31.061Z,31.78
2018-07-15T17:43:02.534Z,31.89
2018-07-15T17:45:34.375Z,31.90
2018-07-15T17:48:05.908Z,32.60
2018-07-15T17:50:38.912Z,31.85
2018-07-15T17:53:10.479Z,32.06
2018-07-15T17:55:41.305Z,32.57
2018-07-15T17:58:12.237Z,33.33
2018-07-15T18:00:42.674Z,33.49
2018-07-15T18:03:14.844Z,34.17
2018-07-15T18:05:45.867Z,33.47
2018-07-15T18:08:16.655Z,33.76
2018-07-15T18:10:48.011Z,33.78
2018-07-15T18:13:19.488Z,34.58
2018-07-15T18:15:50.565Z,35.88
2018-07-15T18:18:22.700Z,35.37
2018-07-15T18:20:55.851Z,36.41
2018-07-15T18:23:27.290Z,37.25
2018-07-15T18:25:58.317Z,37.73
2018-07-15T18:28:29.992Z,38.20
2018-07-15T18:31:01.600Z,38.58
2018-07-15T18:33:33.131Z,39.43
2018-07-15T18:36:06.037Z,39.31
2018-07-15T18:38:38.303Z,38.96
2018-07-15T18:41:10.114Z,38.56
2018-07-15T18:43:42.222Z,39.68
2018-07-15T18:46:13.761Z,39.94
2018-07-15T18:48:45.765Z,40.39
2018-07-15T18:51:18.087Z,40.85
2018-07-15T18:53:51.423Z,40.67
2018-07-15T18:56:23.232Z,40.77
2018-07-15T18:58:56.151Z,40.58
2018-07-15T19:01:28.991Z,41.04
2018-07-15T19:04:00.830Z,41.21
2018-07-15T19:06:34.199Z,42.10
2018-07-15T19:09:08.076Z,42.77
2018-07-15T19:11:39.813Z,43.07
2018-07-15T19:14:11.763Z,42.95
2018-07-15T19:16:43.580Z,43.37
2018-07-15T19:19:15.976Z,44.11
2018-07-15T19:21:48.756Z,42.14
2018-07-15T19:24:20.488Z,42.20
2018-07-15T19:26:52.617Z,42.21
2018-07-15T19:29:24.459Z,41.54
2018-07-15T19:31:56.257Z,42.59
2018-07-15T19:34:27.346Z,42.60
2018-07-15T19:37:00.511Z,42.63
2018-07-15T19:39:32.376Z,42.01
2018-07-15T19:42:04.136Z,42.92
2018-07-15T19:44:36.765Z,43.25
2018-07-15T19:47:08.804Z,43.03
2018-07-15T19:49:40.642Z,43.39
2018-07-15T19:52:13.125Z,43.40
2018-07-15T19:54:45.606Z,43.33
2018-07-15T19:57:17.749Z,43.42
2018-07-15T19:59:49.496Z,43.34
2018-07-15T20:02:21.275Z,44.24
2018-07-15T20:04:52.961Z,44.28
2018-07-15T20:07:26.172Z,44.80
2018-07-15T20:09:58.154Z,44.79
2018-07-15T20:12:29.987Z,45.60
2018-07-15T20:15:02.183Z,45.45
2018-07-15T20:17:33.152Z,45.82
2018-07-15T20:20:05.063Z,46.69
2018-07-15T20:22:37.462Z,46.20
2018-07-15T20:25:09.914Z,44.61
2018-07-15T20:27:42.512Z,43.28
2018-07-15T20:30:14.207Z,43.32
2018-07-15T20:32:47.875Z,44.45
2018-07-15T20:35:19.529Z,44.72
2018-07-15T20:37:52.692Z,45.56
2018-07-15T20:40:25.864Z,46.30
2018-07-15T20:42:57.653Z,47.59
2018-07-15T20:45:28.637Z,48.82
2018-07-15T20:48:00.230Z,50.26
2018-07-15T20:50:31.839Z,50.82
2018-07-15T20:53:04.325Z,52.12
2018-07-15T20:55:36.358Z,52.91
2018-07-15T20:58:07.244Z,53.26
2018-07-15T21:00:38.323Z,54.20
2018-07-15T21:03:09.328Z,54.47
2018-07-15T21:05:40.427Z,54.65
2018-07-15T21:08:12.908Z,55.17
2018-07-15T21:10:53.001Z,55.61
2018-07-15T21:13:23.717Z,55.51
2018-07-15T21:16:01.970Z,57.03
2018-07-15T21:18:33.082Z,57.82
2018-07-15T21:21:03.747Z,58.53
2018-07-15T21:23:35.864Z,58.60
2018-07-15T21:26:06.350Z,58.81
2018-07-15T21:28:37.443Z,59.26
2018-07-15T21:31:08.779Z,59.71
2018-07-15T21:33:40.527Z,60.28
2018-07-15T21:36:11.290Z,60.52
2018-07-15T21:38:42.498Z,60.26
2018-07-15T21:41:13.744Z,60.50
2018-07-15T21:43:45.094Z,60.48
2018-07-15T21:46:15.727Z,60.77
2018-07-15T21:48:46.399Z,60.86
2018-07-15T21:51:17.015Z,60.52
2018-07-15T21:53:47.551Z,61.27
2018-07-15T21:56:18.112Z,61.12
2018-07-15T21:58:48.612Z,60.84
2018-07-15T22:01:20.013Z,61.12
2018-07-15T22:03:51.009Z,61.41
2018-07-15T22:07:39.996Z,61.76
2018-07-15T22:10:17.965Z,62.42
2018-07-15T22:12:48.653Z,63.36
2018-07-15T22:15:19.931Z,63.05
2018-07-15T22:17:50.864Z,63.10
2018-07-15T22:20:21.406Z,63.97
2018-07-15T22:22:52.130Z,63.23
2018-07-15T22:25:23.069Z,63.13
2018-07-15T22:27:53.766Z,62.72
2018-07-15T22:30:24.332Z,62.93
2018-07-15T22:32:54.826Z,63.17
2018-07-15T22:35:27.701Z,62.89
2018-07-15T22:37:58.459Z,63.19
2018-07-15T22:40:29.097Z,63.03
2018-07-15T22:42:59.617Z,63.29
2018-07-15T22:45:30.441Z,63.50
2018-07-15T22:48:01.026Z,64.15
2018-07-15T22:50:31.682Z,64.31
2018-07-15T22:53:02.226Z,66.25
2018-07-15T22:55:33.630Z,64.60
2018-07-15T22:58:04.335Z,66.43
2018-07-15T23:00:34.886Z,66.93
2018-07-15T23:03:05.818Z,66.36
2018-07-15T23:05:54.956Z,64.72
2018-07-15T23:08:26.785Z,64.50
2018-07-15T23:10:57.312Z,64.22
2018-07-15T23:13:27.867Z,64.35
2018-07-15T23:15:58.353Z,63.82
2018-07-15T23:18:28.930Z,63.57
2018-07-15T23:20:59.415Z,64.00
2018-07-15T23:23:30.546Z,64.42
2018-07-15T23:26:01.518Z,64.04
2018-07-15T23:28:31.580Z,63.60
2018-07-15T23:31:02.246Z,64.95
2018-07-15T23:33:33.531Z,65.46
2018-07-15T23:36:03.901Z,65.65
2018-07-15T23:38:34.279Z,65.67
2018-07-15T23:41:04.803Z,65.63
2018-07-15T23:43:36.561Z,65.56
2018-07-15T23:46:07.346Z,65.61
2018-07-15T23:48:38.139Z,65.99
2018-07-15T23:51:08.844Z,66.76
2018-07-15T23:53:39.552Z,68.45
2018-07-15T23:56:10.069Z,69.85
2018-07-15T23:58:40.464Z,70.22
